Latest Weather Observations for Christmas Island

IDW60801

Issued at 10:34 pm WST Saturday 10 December 2016 (issued every 30 minutes, with the page automatically refreshed every 10 minutes)

About weather observations | Map of weather stations | Latest weather observations for WA | Other Formats
Station Details ID: 200790 Name: CHRISTMAS ISLAND AERO Lat: -10.45 Lon: 105.69 Height: 261.0 m
Data from the previous 72 hours. | See also: Recent months at Christmas Island
Date/Time
WST
Temp
°C
App
Temp
°C
Dew
Point
°C
Rel
Hum
%
Delta-T
°C
Wind Press
QNH
hPa
Press
MSL
hPa
Rain since
9am
mm
Dir  Spd
km/h
Gust
km/h
Spd
kts
Gust
kts
10/10:30pm 25.5 28.5 22.6 84 2.0 NW 11 20 6 11 1011.4 - 2.8
10/10:00pm 25.3 28.2 22.5 84 1.9 NW 11 17 6 9 1011.1 1009.5 2.8
10/09:30pm 25.4 27.7 22.1 82 2.2 NW 13 19 7 10 1010.7 - 2.8
10/09:00pm 25.5 28.0 22.4 83 2.1 NW 13 24 7 13 1010.5 - 2.8
10/08:30pm 25.6 28.1 22.4 82 2.2 WNW 13 20 7 11 1010.0 - 2.8
10/08:00pm 25.4 28.3 22.5 84 2.0 WNW 11 19 6 10 1009.7 - 2.8
10/07:30pm 25.4 28.7 22.5 84 2.0 WNW 9 17 5 9 1009.2 - 2.8
10/07:00pm 25.8 28.3 22.4 81 2.3 WNW 13 26 7 14 1008.8 1007.1 2.8
10/06:30pm 26.1 28.4 22.7 81 2.3 WNW 15 26 8 14 1008.6 - 2.8
10/06:00pm 26.2 27.8 22.2 78 2.7 NW 17 35 9 19 1008.4 - 2.8
10/05:30pm 26.8 29.3 23.2 80 2.5 WNW 15 28 8 15 1008.3 - 2.8
10/05:01pm 26.7 28.9 23.2 81 2.4 WNW 17 28 9 15 1008.2 - 2.8
10/05:00pm 26.8 29.0 23.3 81 2.4 WNW 17 28 9 15 1008.2 - 2.8
10/04:41pm 27.3 30.1 23.7 81 2.5 WNW 15 24 8 13 1008.2 - 2.8
10/04:40pm 27.1 29.9 23.6 81 2.4 WNW 15 24 8 13 1008.3 - 2.8
10/04:30pm 27.3 30.0 23.5 80 2.6 WNW 15 28 8 15 1008.3 - 2.8
10/04:00pm 27.2 29.5 23.4 80 2.6 WNW 17 32 9 17 1008.3 1006.6 2.8
10/03:41pm 27.5 29.9 23.6 79 2.7 WNW 17 28 9 15 1008.5 - 2.8
10/03:30pm 27.3 29.6 23.5 80 2.6 WNW 17 30 9 16 1008.7 - 2.8
10/03:27pm 27.1 29.5 23.6 81 2.4 WNW 17 30 9 16 1008.7 - 2.8
10/03:25pm 27.0 29.3 23.4 80 2.5 WNW 17 32 9 17 1008.8 - 2.8
10/03:14pm 27.3 29.8 23.8 81 2.4 WNW 17 30 9 16 1008.8 - 2.8
10/03:04pm 27.6 29.7 23.7 79 2.7 NW 19 33 10 18 1008.8 - 2.8
10/03:00pm 27.7 29.6 23.5 78 2.9 NW 19 33 10 18 1008.9 - 2.8
10/02:48pm 27.0 28.9 23.8 82 2.2 WNW 20 33 11 18 1008.9 - 2.8
10/02:42pm 27.2 29.4 23.9 82 2.3 WNW 19 30 10 16 1009.0 - 2.8
10/02:30pm 27.5 30.6 24.1 82 2.4 W 15 26 8 14 1009.1 - 2.8
10/02:01pm 27.4 29.8 23.7 80 2.6 NW 17 32 9 17 1009.3 - 2.8
10/02:00pm 27.7 30.3 24.0 80 2.6 WNW 17 32 9 17 1009.3 - 2.8
10/01:38pm 27.3 29.4 23.8 81 2.4 NW 19 28 10 15 1009.4 - 2.6
10/01:30pm 27.1 29.6 23.8 82 2.3 WNW 17 28 9 15 1009.5 - 2.6
10/01:00pm 26.9 30.3 24.6 87 1.6 NW 15 24 8 13 1009.9 1008.3 2.6
10/12:43pm 26.8 31.0 24.7 88 1.5 NW 11 20 6 11 1010.1 - 2.2
10/12:30pm 26.7 30.1 24.6 88 1.5 NW 15 28 8 15 1010.2 - 2.2
10/12:04pm 25.7 30.0 24.3 92 1.0 WNW 9 19 5 10 1010.5 - 2.0
10/12:00pm 25.8 29.9 24.5 92 0.9 WNW 11 20 6 11 1010.5 - 2.0
10/11:42am 25.6 28.3 23.4 88 1.5 W 15 28 8 15 1010.7 - 0.6
10/11:30am 27.3 30.9 23.7 81 2.5 WNW 11 24 6 13 1010.6 - 0.2
10/11:14am 27.5 30.6 23.6 79 2.7 NW 13 24 7 13 1010.8 - 0.2
10/11:00am 27.6 30.4 23.6 79 2.8 WNW 15 26 8 14 1010.9 - 0.2
10/10:59am 27.6 30.6 24.0 81 2.5 WNW 15 26 8 14 1010.9 - 0.2
10/10:30am 27.4 30.1 23.5 79 2.7 NW 15 24 8 13 1011.0 - 0.2
10/10:04am 27.4 30.7 23.8 81 2.5 NNW 13 22 7 12 1011.0 - 0.2
10/10:00am 27.1 30.2 23.6 81 2.4 NNW 13 19 7 10 1011.0 1009.4 8.4
10/09:47am 26.9 29.6 23.4 81 2.4 NNW 15 26 8 14 1010.9 - 8.4
10/09:30am 26.4 28.9 23.2 82 2.2 NW 15 24 8 13 1010.8 - 8.4
10/09:00am 26.3 29.5 23.7 85 1.8 NW 13 26 7 14 1010.5 - 8.4
10/08:37am 25.4 28.4 23.4 89 1.4 NNW 13 22 7 12 1010.4 - 8.4
10/08:30am 25.3 28.7 23.3 89 1.4 NNW 11 19 6 10 1010.4 - 8.4
10/08:00am 25.0 27.7 22.8 87 1.5 NNW 13 24 7 13 1010.4 - 8.4
10/07:30am 24.8 27.6 22.3 86 1.7 NW 11 19 6 10 1010.3 - 8.4
10/07:00am 24.6 27.1 22.5 88 1.4 NW 13 24 7 13 1010.0 1008.4 8.4
10/06:55am 24.6 27.6 22.7 89 1.3 NNW 11 24 6 13 1010.0 - 8.4
10/06:42am 24.4 27.5 22.9 91 1.0 NNW 11 22 6 12 1009.9 - 8.4
10/06:32am 24.4 27.9 22.9 91 1.0 NNW 9 15 5 8 1010.0 - 8.4
10/06:30am 24.4 27.9 22.9 91 1.0 NNW 9 15 5 8 1010.0 - 8.4
10/06:21am 24.3 28.2 23.0 92 0.9 NW 7 13 4 7 1010.0 - 8.4
10/06:07am 24.3 27.7 22.7 91 1.1 NW 9 19 5 10 1009.8 - 8.4
10/06:00am 24.3 27.3 22.7 91 1.1 NW 11 17 6 9 1009.7 - 8.4
10/05:43am 24.2 26.8 22.6 91 1.1 NW 13 19 7 10 1009.6 - 8.4
10/05:30am 24.2 27.4 22.3 89 1.3 NW 9 17 5 9 1009.6 - 8.4
10/05:00am 24.0 26.2 21.8 87 1.5 NW 13 22 7 12 1009.5 - 8.4
10/04:30am 23.8 24.9 21.2 85 1.7 NW 17 28 9 15 1009.2 - 8.4
10/04:00am 23.7 24.5 20.7 83 2.0 NW 17 28 9 15 1009.5 1007.9 8.4
10/03:30am 23.6 25.1 21.2 86 1.6 WNW 15 24 8 13 1009.9 - 8.4
10/03:00am 23.6 25.2 21.5 88 1.4 WNW 15 26 8 14 1010.2 - 8.4
10/02:57am 23.6 25.3 21.7 89 1.3 WNW 15 26 8 14 1010.2 - 8.4
10/02:44am 23.8 25.8 22.2 91 1.1 NW 15 24 8 13 1010.2 - 8.4
10/02:30am 24.0 27.4 22.7 92 0.9 NE 9 11 5 6 1010.1 - 7.6
10/02:00am 23.9 27.5 22.4 91 1.0 NE 7 11 4 6 1010.3 - 7.6
10/01:30am 23.9 27.7 22.7 93 0.8 NE 7 9 4 5 1010.5 - 7.6
10/01:00am 24.0 27.9 23.0 94 0.7 NE 7 11 4 6 1010.6 1009.0 7.6
10/12:30am 24.0 27.4 22.7 92 0.9 NE 9 11 5 6 1010.8 - 7.6
10/12:00am 24.0 27.8 22.8 93 0.8 NE 7 13 4 7 1011.0 - 7.6
 
Date/Time
WST
Temp
°C
App
Temp
°C
Dew
Point
°C
Rel
Hum
%
Delta-T
°C
Wind Press
QNH
hPa
Press
MSL
hPa
Rain since
9am
mm
Dir  Spd
km/h
Gust
km/h
Spd
kts
Gust
kts
09/11:30pm 24.2 28.1 23.0 93 0.8 NE 7 11 4 6 1011.2 - 7.6
09/11:00pm 24.2 27.2 22.6 91 1.1 NE 11 17 6 9 1011.1 - 7.6
09/10:57pm 24.2 27.2 22.7 91 1.0 NE 11 17 6 9 1011.0 - 7.6
09/10:30pm 24.4 26.9 23.2 93 0.8 ENE 15 20 8 11 1010.8 - 7.6
09/10:00pm 24.4 28.4 23.7 96 0.5 E 9 13 5 7 1010.7 1009.1 7.6
09/09:56pm 24.3 27.8 23.6 96 0.5 E 11 15 6 8 1010.7 - 7.6
09/09:30pm 24.3 27.9 23.1 93 0.8 E 9 11 5 6 1010.4 - 7.6
09/09:00pm 23.9 27.4 22.9 94 0.7 E 9 11 5 6 1010.0 - 7.6
09/08:30pm 23.5 27.0 22.2 92 0.9 N 7 11 4 6 1009.8 - 7.4
09/08:26pm 23.4 27.5 22.2 93 0.8 N 4 9 2 5 1009.8 - 7.2
09/08:13pm 23.0 27.8 22.1 95 0.6 CALM 0 0 0 0 1009.7 - 7.0
09/08:00pm 22.6 26.0 21.7 95 0.6 N 6 9 3 5 1009.6 - 6.6
09/07:36pm 22.7 23.8 21.3 92 0.9 N 17 22 9 12 1009.5 - 4.8
09/07:30pm 23.2 25.8 22.6 96 0.4 NNE 13 20 7 11 1009.4 - 3.8
09/07:11pm 23.5 24.5 22.9 96 0.4 NNE 22 32 12 17 1009.5 - 0.2
09/07:09pm 23.6 24.3 23.0 96 0.4 NNE 24 32 13 17 1009.4 - 0.2
09/07:00pm 26.0 29.3 22.5 81 2.4 SE 9 20 5 11 1009.1 1007.4 0.2
09/06:30pm 26.1 29.4 22.6 81 2.4 SE 9 13 5 7 1008.8 - 0.2
09/06:00pm 26.2 28.8 22.7 81 2.4 SE 13 17 7 9 1008.5 - 0.2
09/05:56pm 26.1 29.2 22.9 82 2.2 SE 11 17 6 9 1008.4 - 0.2
09/05:30pm 26.4 28.6 22.6 79 2.6 SE 15 24 8 13 1008.4 - 0.2
09/05:00pm 26.0 28.4 22.9 83 2.1 SE 15 20 8 11 1008.3 - 0.2
09/04:30pm 26.4 28.4 22.3 78 2.8 SE 15 20 8 11 1008.3 - 0.2
09/04:11pm 26.5 28.4 22.7 79 2.6 SE 17 20 9 11 1008.2 - 0.2
09/04:00pm 26.4 29.3 23.1 82 2.3 SE 13 19 7 10 1008.3 1006.6 0.2
09/03:52pm 26.5 28.9 22.9 80 2.5 SE 15 20 8 11 1008.3 - 0.2
09/03:30pm 26.6 28.6 22.3 77 2.9 SE 15 20 8 11 1008.5 - 0.2
09/03:25pm 26.8 28.7 22.7 78 2.8 SE 17 24 9 13 1008.4 - 0.2
09/03:00pm 26.7 28.0 22.4 77 2.9 ESE 19 26 10 14 1008.5 - 0.2
09/02:53pm 26.8 28.4 22.9 79 2.7 ESE 19 24 10 13 1008.7 - 0.2
09/02:30pm 26.9 28.4 22.7 78 2.9 SE 19 24 10 13 1008.9 - 0.2
09/02:00pm 26.8 28.7 22.7 78 2.8 ESE 17 26 9 14 1009.2 - 0.2
09/01:30pm 27.2 28.6 22.8 77 3.0 ESE 20 26 11 14 1009.4 - 0.2
09/01:10pm 26.9 28.4 22.7 78 2.9 ESE 19 24 10 13 1009.5 - 0.2
09/01:00pm 27.4 28.9 22.7 75 3.2 ESE 19 26 10 14 1009.6 1008.0 0.2
09/12:30pm 27.6 29.0 21.8 70 3.9 ESE 17 24 9 13 1010.0 - 0.2
09/12:00pm 27.3 29.6 22.0 73 3.6 ESE 13 20 7 11 1010.3 - 0.2
09/11:30am 26.9 29.1 21.9 74 3.4 ESE 13 20 7 11 1010.5 - 0.2
09/11:00am 27.4 30.0 22.6 75 3.3 ESE 13 19 7 10 1010.4 - 0.2
09/10:44am 26.7 29.3 22.0 75 3.2 ESE 11 19 6 10 1010.5 - 0.2
09/10:33am 26.8 29.5 22.1 75 3.2 E 11 17 6 9 1010.5 - 0.2
09/10:30am 26.8 29.4 21.9 74 3.3 ESE 11 19 6 10 1010.5 - 0.2
09/10:00am 26.6 29.6 22.6 78 2.7 ESE 11 17 6 9 1010.4 1008.8 0.6
09/09:35am 25.8 28.5 22.9 84 2.0 ESE 13 17 7 9 1010.4 - 0.6
09/09:30am 25.7 28.9 23.1 85 1.8 ESE 11 17 6 9 1010.4 - 0.6
09/09:00am 25.4 28.8 23.4 89 1.4 ESE 11 15 6 8 1010.2 - 0.6
09/08:30am 24.9 28.3 23.3 91 1.1 ESE 11 17 6 9 1010.0 - 0.6
09/08:00am 24.7 27.4 22.9 90 1.2 SE 13 17 7 9 1009.9 - 0.6
09/07:30am 24.1 27.6 23.5 96 0.4 NNE 11 15 6 8 1009.7 - 0.6
09/07:06am 23.7 27.8 23.3 98 0.3 N 7 9 4 5 1009.6 - 0.6
09/07:00am 23.6 27.7 23.0 96 0.4 N 6 7 3 4 1009.6 1008.0 0.6
09/06:48am 23.5 28.8 23.1 98 0.3 CALM 0 4 0 2 1009.5 - 0.6
09/06:30am 23.6 27.7 23.0 96 0.4 N 6 7 3 4 1009.3 - 0.6
09/06:08am 23.5 27.6 22.9 96 0.4 N 6 9 3 5 1009.1 - 0.6
09/06:00am 23.5 27.4 22.9 96 0.4 N 7 9 4 5 1009.1 - 0.6
09/05:42am 23.5 27.5 22.8 96 0.5 N 6 6 3 3 1009.2 - 0.6
09/05:30am 23.5 28.3 22.8 96 0.5 N 2 6 1 3 1009.1 - 0.6
09/05:02am 23.2 28.2 22.5 96 0.5 CALM 0 0 0 0 1009.3 - 0.6
09/05:00am 23.2 28.3 22.6 96 0.4 CALM 0 4 0 2 1009.3 - 0.6
09/04:30am 23.4 27.4 22.7 96 0.5 N 6 7 3 4 1009.3 - 0.6
09/04:05am 23.5 27.5 22.8 96 0.5 N 6 7 3 4 1009.3 - 0.6
09/04:00am 23.6 27.6 22.7 95 0.6 N 6 7 3 4 1009.4 1007.8 0.6
09/03:42am 23.5 26.8 22.6 95 0.6 N 9 13 5 7 1009.6 - 0.6
09/03:30am 23.4 26.7 22.5 95 0.6 N 9 13 5 7 1009.6 - 0.4
09/03:00am 23.2 27.1 22.6 96 0.4 N 6 9 3 5 1009.8 - 0.4
09/02:55am 23.1 27.0 22.5 96 0.4 N 6 7 3 4 1009.8 - 0.4
09/02:30am 23.3 26.7 22.7 96 0.4 N 9 13 5 7 1010.2 - 0.4
09/02:24am 23.3 26.6 22.6 96 0.5 N 9 13 5 7 1010.3 - 0.4
09/02:00am 23.4 26.5 22.8 96 0.4 N 11 17 6 9 1010.7 - 0.2
09/01:47am 23.7 26.9 23.1 96 0.4 N 11 17 6 9 1010.8 - 0.0
09/01:46am 23.7 26.9 23.0 96 0.5 N 11 17 6 9 1010.8 - 0.0
09/01:30am 24.6 28.3 22.5 88 1.4 ESE 7 17 4 9 1011.0 - 0.0
09/01:00am 24.9 28.2 21.9 83 2.0 SE 7 9 4 5 1011.3 1009.7 0.0
09/12:30am 24.7 28.2 22.2 86 1.7 SE 7 9 4 5 1011.4 - 0.0
09/12:00am 24.5 27.5 22.0 86 1.7 SE 9 11 5 6 1011.6 - 0.0
 
Date/Time
WST
Temp
°C
App
Temp
°C
Dew
Point
°C
Rel
Hum
%
Delta-T
°C
Wind Press
QNH
hPa
Press
MSL
hPa
Rain since
9am
mm
Dir  Spd
km/h
Gust
km/h
Spd
kts
Gust
kts
08/11:30pm 24.7 27.7 22.0 85 1.8 SE 9 13 5 7 1011.7 - 0.0
08/11:00pm 24.9 28.0 22.1 84 1.9 SE 9 15 5 8 1011.6 - 0.0
08/10:30pm 25.0 28.0 22.0 83 2.0 SE 9 13 5 7 1011.7 - 0.0
08/10:00pm 24.9 27.6 22.1 84 1.9 SE 11 15 6 8 1011.5 1009.9 0.0
08/09:30pm 24.9 27.6 22.1 84 1.9 SE 11 17 6 9 1011.5 - 0.0
08/09:00pm 24.8 28.0 22.3 86 1.7 SE 9 15 5 8 1011.3 - 0.0
08/08:30pm 24.7 27.8 22.2 86 1.7 SSE 9 15 5 8 1011.0 - 0.0
08/08:00pm 24.9 27.6 22.1 84 1.9 SE 11 17 6 9 1010.7 - 0.0
08/07:30pm 25.0 28.0 22.0 83 2.0 SE 9 17 5 9 1010.2 - 0.0
08/07:00pm 25.2 27.9 22.1 83 2.1 SE 11 15 6 8 1009.8 1008.2 0.0
08/06:30pm 25.6 27.9 22.0 80 2.4 SE 13 19 7 10 1009.7 - 0.0
08/06:00pm 26.0 29.1 22.2 79 2.6 S 9 13 5 7 1009.3 - 0.0
08/05:30pm 26.2 29.3 22.1 78 2.8 SSE 9 15 5 8 1009.0 - 0.0
08/05:00pm 26.2 28.9 22.1 78 2.8 S 11 17 6 9 1008.8 - 0.0
08/04:30pm 26.7 29.3 22.0 75 3.2 SSE 11 17 6 9 1008.7 - 0.0
08/04:00pm 27.6 30.1 22.5 74 3.5 SSE 13 22 7 12 1008.8 1007.1 0.0
08/03:30pm 27.5 30.2 22.1 72 3.7 SSE 11 20 6 11 1008.8 - 0.0
08/03:00pm 27.6 30.1 22.5 74 3.5 SE 13 20 7 11 1008.9 - 0.0
08/02:30pm 27.0 29.9 22.5 76 3.1 SSE 11 20 6 11 1009.3 - 0.0
08/02:00pm 26.7 29.5 22.3 77 3.0 S 11 19 6 10 1009.5 - 0.0
08/01:30pm 27.3 29.8 22.5 75 3.3 SSE 13 20 7 11 1009.8 - 0.0
08/01:00pm 26.9 29.4 22.5 77 3.0 SSE 13 22 7 12 1009.9 1008.3 0.0
08/12:30pm 26.5 28.5 22.2 77 2.9 SSE 15 22 8 12 1010.1 - 0.0
08/12:00pm 27.3 29.8 22.5 75 3.3 SSE 13 20 7 11 1010.5 - 0.0
08/11:30am 26.8 29.3 22.4 77 3.0 SSE 13 19 7 10 1010.7 - 0.0
08/11:00am 27.1 29.6 22.4 75 3.2 SSE 13 20 7 11 1011.0 - 0.0
08/10:30am 26.8 29.1 22.1 75 3.2 SSE 13 20 7 11 1011.2 - 0.0
08/10:00am 26.1 28.3 21.8 77 2.9 SSE 13 20 7 11 1011.2 1009.6 0.0
08/09:30am 26.0 28.2 21.8 77 2.8 SE 13 19 7 10 1011.2 - 0.0
08/09:00am 25.8 28.4 21.9 79 2.6 SE 11 20 6 11 1010.9 - 0.0
08/08:30am 25.5 27.7 21.9 80 2.4 SSE 13 22 7 12 1010.7 - 0.0
08/08:00am 25.5 27.7 21.8 80 2.5 SSE 13 19 7 10 1010.4 - 0.0
08/07:30am 25.3 27.2 21.3 78 2.7 SSE 13 22 7 12 1010.0 - 0.0
08/07:00am 24.4 26.8 20.9 81 2.3 SE 9 15 5 8 1009.8 1008.2 0.0
08/06:30am 24.2 26.6 21.5 85 1.8 SE 11 19 6 10 1009.5 - 0.0
08/06:00am 24.3 26.1 21.1 82 2.1 SSE 13 22 7 12 1009.5 - 0.0
08/05:30am 24.1 25.9 21.1 83 2.0 SE 13 20 7 11 1009.3 - 0.0
08/05:00am 24.1 26.3 21.1 83 2.0 S 11 20 6 11 1009.3 - 0.0
08/04:30am 24.2 26.5 21.4 84 1.9 SSE 11 22 6 12 1009.0 - 0.0
08/04:00am 24.1 26.8 21.4 85 1.8 SSE 9 17 5 9 1009.1 1007.4 0.0
08/03:30am 24.2 26.9 21.4 84 1.9 SSE 9 17 5 9 1009.2 - 0.0
08/03:00am 24.3 26.6 21.3 83 2.0 SSE 11 19 6 10 1009.3 - 0.0
08/02:30am 24.1 26.8 21.4 85 1.8 S 9 15 5 8 1009.4 - 0.0
08/02:00am 24.3 27.1 21.5 84 1.9 SSE 9 13 5 7 1009.8 - 0.0
08/01:30am 24.3 27.1 21.5 84 1.9 SE 9 17 5 9 1010.1 - 0.0
08/01:00am 24.3 27.1 21.6 85 1.8 SSE 9 17 5 9 1010.5 1008.9 0.0
08/12:30am 24.4 26.8 21.6 84 1.9 SSE 11 19 6 10 1010.9 - 0.0
08/12:00am 24.4 26.8 21.6 84 1.9 SE 11 17 6 9 1011.6 - 0.0

Other Formats:

Comma delimited format used in spreadsheet applications
http://www.bom.gov.au/fwo/IDW60801/IDW60801.96995.axf

JavaScript Object Notation format (JSON) in row-major order
http://www.bom.gov.au/fwo/IDW60801/IDW60801.96995.json